sensor_id;sensor_type;location;lat;lon;timestamp;pressure;altitude;pressure_sealevel;temperature;humidity
35226;BME280;21813;49.686;21.766;2023-09-18T00:17:28;98696.19;;;16.59;100.00
35226;BME280;21813;49.686;21.766;2023-09-18T00:19:55;98687.59;;;16.57;100.00
35226;BME280;21813;49.686;21.766;2023-09-18T00:22:22;98677.84;;;16.50;100.00
35226;BME280;21813;49.686;21.766;2023-09-18T00:25:01;98677.66;;;16.51;100.00
35226;BME280;21813;49.686;21.766;2023-09-18T01:23:40;98673.69;;;16.29;100.00
35226;BME280;21813;49.686;21.766;2023-09-18T01:26:26;98682.81;;;16.35;100.00
35226;BME280;21813;49.686;21.766;2023-09-18T01:28:53;98692.19;;;16.38;100.00
35226;BME280;21813;49.686;21.766;2023-09-18T01:31:30;98679.66;;;16.31;100.00
35226;BME280;21813;49.686;21.766;2023-09-18T01:37:33;98676.72;;;16.34;100.00
35226;BME280;21813;49.686;21.766;2023-09-18T01:40:45;98672.41;;;16.33;100.00
35226;BME280;21813;49.686;21.766;2023-09-18T02:12:23;98679.63;;;16.49;100.00
35226;BME280;21813;49.686;21.766;2023-09-18T02:15:04;98663.34;;;16.46;100.00
35226;BME280;21813;49.686;21.766;2023-09-18T02:21:36;98678.22;;;16.55;100.00
35226;BME280;21813;49.686;21.766;2023-09-18T02:24:07;98681.38;;;16.58;100.00
35226;BME280;21813;49.686;21.766;2023-09-18T02:26:33;98675.28;;;16.58;100.00
35226;BME280;21813;49.686;21.766;2023-09-18T02:29:16;98665.50;;;16.50;100.00
35226;BME280;21813;49.686;21.766;2023-09-18T02:51:57;98670.84;;;16.41;100.00
35226;BME280;21813;49.686;21.766;2023-09-18T02:58:15;98675.81;;;16.44;100.00
35226;BME280;21813;49.686;21.766;2023-09-18T03:01:18;98691.66;;;16.52;100.00
35226;BME280;21813;49.686;21.766;2023-09-18T03:31:15;98672.66;;;16.22;100.00
35226;BME280;21813;49.686;21.766;2023-09-18T03:34:15;98671.00;;;16.21;100.00
35226;BME280;21813;49.686;21.766;2023-09-18T03:36:59;98676.56;;;16.18;100.00
35226;BME280;21813;49.686;21.766;2023-09-18T03:39:43;98662.66;;;16.08;100.00
35226;BME280;21813;49.686;21.766;2023-09-18T03:42:16;98675.75;;;16.18;100.00
35226;BME280;21813;49.686;21.766;2023-09-18T03:44:54;98664.69;;;16.14;100.00
35226;BME280;21813;49.686;21.766;2023-09-18T03:50:36;98668.00;;;16.16;100.00
35226;BME280;21813;49.686;21.766;2023-09-18T03:53:02;98661.31;;;16.04;100.00
35226;BME280;21813;49.686;21.766;2023-09-18T03:55:28;98662.66;;;16.08;100.00
35226;BME280;21813;49.686;21.766;2023-09-18T03:57:56;98664.91;;;16.03;100.00
35226;BME280;21813;49.686;21.766;2023-09-18T04:00:36;98652.34;;;15.97;100.00
35226;BME280;21813;49.686;21.766;2023-09-18T04:10:33;98648.75;;;15.98;100.00
35226;BME280;21813;49.686;21.766;2023-09-18T04:13:34;98656.78;;;15.97;100.00
35226;BME280;21813;49.686;21.766;2023-09-18T04:19:03;98649.06;;;15.95;100.00
35226;BME280;21813;49.686;21.766;2023-09-18T04:21:50;98666.56;;;16.04;100.00
35226;BME280;21813;49.686;21.766;2023-09-18T04:24:42;98652.44;;;16.05;100.00
35226;BME280;21813;49.686;21.766;2023-09-18T04:27:14;98654.22;;;16.05;100.00
35226;BME280;21813;49.686;21.766;2023-09-18T04:29:55;98644.84;;;16.02;100.00
35226;BME280;21813;49.686;21.766;2023-09-18T04:32:52;98660.09;;;16.16;100.00
35226;BME280;21813;49.686;21.766;2023-09-18T04:35:22;98640.63;;;16.09;100.00
35226;BME280;21813;49.686;21.766;2023-09-18T04:40:25;98645.00;;;16.18;100.00
35226;BME280;21813;49.686;21.766;2023-09-18T05:23:16;98640.63;;;16.62;100.00
35226;BME280;21813;49.686;21.766;2023-09-18T05:25:49;98627.47;;;16.62;100.00
35226;BME280;21813;49.686;21.766;2023-09-18T05:31:49;98636.63;;;16.84;100.00
35226;BME280;21813;49.686;21.766;2023-09-18T05:34:44;98632.41;;;16.91;100.00
35226;BME280;21813;49.686;21.766;2023-09-18T05:37:16;98616.91;;;16.88;100.00
35226;BME280;21813;49.686;21.766;2023-09-18T05:43:35;98617.34;;;17.01;100.00
35226;BME280;21813;49.686;21.766;2023-09-18T05:46:44;98623.16;;;17.13;100.00
35226;BME280;21813;49.686;21.766;2023-09-18T05:49:28;98615.72;;;17.08;100.00
35226;BME280;21813;49.686;21.766;2023-09-18T06:05:55;98622.28;;;17.80;100.00
35226;BME280;21813;49.686;21.766;2023-09-18T06:21:28;98612.38;;;18.95;100.00
35226;BME280;21813;49.686;21.766;2023-09-18T06:24:35;98613.88;;;19.29;100.00
35226;BME280;21813;49.686;21.766;2023-09-18T06:27:01;98630.06;;;19.73;100.00
35226;BME280;21813;49.686;21.766;2023-09-18T06:29:36;98617.25;;;20.38;100.00
35226;BME280;21813;49.686;21.766;2023-09-18T06:32:08;98624.91;;;21.58;100.00
35226;BME280;21813;49.686;21.766;2023-09-18T06:34:44;98610.81;;;22.58;100.00
35226;BME280;21813;49.686;21.766;2023-09-18T06:37:32;98616.22;;;23.74;100.00
35226;BME280;21813;49.686;21.766;2023-09-18T06:40:13;98621.47;;;25.00;93.47
35226;BME280;21813;49.686;21.766;2023-09-18T06:43:21;98631.94;;;26.42;86.46
35226;BME280;21813;49.686;21.766;2023-09-18T06:50:08;98609.28;;;27.55;77.59
35226;BME280;21813;49.686;21.766;2023-09-18T06:53:03;98614.88;;;27.84;75.54
35226;BME280;21813;49.686;21.766;2023-09-18T06:55:41;98611.81;;;27.80;75.98
35226;BME280;21813;49.686;21.766;2023-09-18T06:58:07;98614.75;;;28.62;72.94
35226;BME280;21813;49.686;21.766;2023-09-18T07:00:34;98618.50;;;29.30;70.75
35226;BME280;21813;49.686;21.766;2023-09-18T07:17:10;98612.19;;;30.83;63.33
35226;BME280;21813;49.686;21.766;2023-09-18T07:19:52;98619.31;;;31.71;61.32
35226;BME280;21813;49.686;21.766;2023-09-18T07:22:26;98618.38;;;33.05;56.94
35226;BME280;21813;49.686;21.766;2023-09-18T07:28:47;98614.06;;;36.12;46.19
35226;BME280;21813;49.686;21.766;2023-09-18T07:31:44;98609.66;;;36.21;44.41
35226;BME280;21813;49.686;21.766;2023-09-18T07:34:16;98619.34;;;36.33;44.30
35226;BME280;21813;49.686;21.766;2023-09-18T07:37:03;98627.38;;;36.14;43.63
35226;BME280;21813;49.686;21.766;2023-09-18T07:39:39;98623.44;;;34.91;46.65
35226;BME280;21813;49.686;21.766;2023-09-18T07:42:14;98598.72;;;33.77;49.21
35226;BME280;21813;49.686;21.766;2023-09-18T07:44:42;98620.31;;;33.14;50.48
35226;BME280;21813;49.686;21.766;2023-09-18T07:47:18;98621.50;;;32.23;53.49
35226;BME280;21813;49.686;21.766;2023-09-18T07:49:45;98603.06;;;32.47;53.20
35226;BME280;21813;49.686;21.766;2023-09-18T07:54:43;98609.72;;;36.11;42.14
35226;BME280;21813;49.686;21.766;2023-09-18T07:57:15;98609.16;;;37.11;40.00
35226;BME280;21813;49.686;21.766;2023-09-18T07:59:49;98617.34;;;37.77;38.30
35226;BME280;21813;49.686;21.766;2023-09-18T08:02:43;98608.63;;;37.99;36.62
35226;BME280;21813;49.686;21.766;2023-09-18T08:05:20;98607.03;;;37.74;36.92
35226;BME280;21813;49.686;21.766;2023-09-18T08:07:46;98612.00;;;36.96;38.91
35226;BME280;21813;49.686;21.766;2023-09-18T08:10:20;98618.25;;;35.30;41.30
35226;BME280;21813;49.686;21.766;2023-09-18T08:13:00;98613.53;;;33.12;47.06
35226;BME280;21813;49.686;21.766;2023-09-18T08:15:54;98609.88;;;31.08;52.15
35226;BME280;21813;49.686;21.766;2023-09-18T08:18:25;98608.38;;;29.61;56.71
35226;BME280;21813;49.686;21.766;2023-09-18T08:20:55;98610.31;;;28.55;61.77
35226;BME280;21813;49.686;21.766;2023-09-18T08:23:27;98609.38;;;27.79;64.54
35226;BME280;21813;49.686;21.766;2023-09-18T08:25:53;98603.00;;;27.25;66.27
35226;BME280;21813;49.686;21.766;2023-09-18T08:28:24;98608.34;;;26.89;69.33
35226;BME280;21813;49.686;21.766;2023-09-18T08:30:52;98608.38;;;26.57;69.02
35226;BME280;21813;49.686;21.766;2023-09-18T08:33:21;98598.50;;;26.33;71.15
35226;BME280;21813;49.686;21.766;2023-09-18T08:35:46;98600.44;;;26.19;72.15
35226;BME280;21813;49.686;21.766;2023-09-18T08:38:14;98602.03;;;25.95;71.91
35226;BME280;21813;49.686;21.766;2023-09-18T08:40:40;98596.78;;;25.76;71.92
35226;BME280;21813;49.686;21.766;2023-09-18T08:43:07;98591.13;;;25.59;73.78
35226;BME280;21813;49.686;21.766;2023-09-18T08:48:14;98589.94;;;25.42;76.41
35226;BME280;21813;49.686;21.766;2023-09-18T08:50:45;98590.19;;;25.34;75.89
35226;BME280;21813;49.686;21.766;2023-09-18T08:53:14;98583.03;;;25.28;75.26
35226;BME280;21813;49.686;21.766;2023-09-18T08:55:40;98589.81;;;25.24;76.99
35226;BME280;21813;49.686;21.766;2023-09-18T08:58:08;98590.84;;;25.16;76.01
35226;BME280;21813;49.686;21.766;2023-09-18T09:00:36;98585.75;;;25.15;75.89
35226;BME280;21813;49.686;21.766;2023-09-18T09:03:03;98583.47;;;25.12;76.41
35226;BME280;21813;49.686;21.766;2023-09-18T09:05:30;98590.25;;;25.14;78.86
35226;BME280;21813;49.686;21.766;2023-09-18T09:07:57;98584.53;;;25.11;76.08
35226;BME280;21813;49.686;21.766;2023-09-18T09:10:23;98579.19;;;25.11;77.15
35226;BME280;21813;49.686;21.766;2023-09-18T09:12:55;98579.97;;;25.18;74.62
35226;BME280;21813;49.686;21.766;2023-09-18T09:15:44;98576.50;;;25.17;74.79
35226;BME280;21813;49.686;21.766;2023-09-18T09:18:12;98573.44;;;25.14;76.99
35226;BME280;21813;49.686;21.766;2023-09-18T09:20:40;98579.78;;;25.13;75.11
35226;BME280;21813;49.686;21.766;2023-09-18T09:23:09;98584.69;;;25.16;76.41
35226;BME280;21813;49.686;21.766;2023-09-18T09:25:37;98571.53;;;25.21;74.52
35226;BME280;21813;49.686;21.766;2023-09-18T09:28:05;98569.69;;;25.28;75.63
35226;BME280;21813;49.686;21.766;2023-09-18T09:30:32;98568.22;;;25.32;76.17
35226;BME280;21813;49.686;21.766;2023-09-18T09:32:59;98571.09;;;25.30;72.87
35226;BME280;21813;49.686;21.766;2023-09-18T09:35:26;98576.50;;;25.17;75.84
35226;BME280;21813;49.686;21.766;2023-09-18T09:37:57;98558.88;;;25.10;75.48
35226;BME280;21813;49.686;21.766;2023-09-18T09:40:23;98561.78;;;25.01;74.31
35226;BME280;21813;49.686;21.766;2023-09-18T09:42:55;98556.44;;;25.01;74.85
35226;BME280;21813;49.686;21.766;2023-09-18T09:45:26;98557.03;;;25.03;75.45
35226;BME280;21813;49.686;21.766;2023-09-18T09:48:03;98563.78;;;25.13;77.33
35226;BME280;21813;49.686;21.766;2023-09-18T10:10:13;98533.41;;;25.07;74.49
35226;BME280;21813;49.686;21.766;2023-09-18T10:22:31;98533.72;;;24.66;74.84
35226;BME280;21813;49.686;21.766;2023-09-18T10:25:19;98528.81;;;24.56;75.87
35226;BME280;21813;49.686;21.766;2023-09-18T10:28:03;98531.91;;;24.60;76.62
35226;BME280;21813;49.686;21.766;2023-09-18T10:30:50;98526.16;;;24.63;75.09
35226;BME280;21813;49.686;21.766;2023-09-18T10:33:34;98527.59;;;24.59;75.44
35226;BME280;21813;49.686;21.766;2023-09-18T10:36:17;98537.66;;;24.50;75.50
35226;BME280;21813;49.686;21.766;2023-09-18T10:38:47;98529.84;;;24.49;75.85
35226;BME280;21813;49.686;21.766;2023-09-18T10:41:33;98525.31;;;24.56;76.33
35226;BME280;21813;49.686;21.766;2023-09-18T10:43:58;98522.03;;;24.67;73.09
35226;BME280;21813;49.686;21.766;2023-09-18T10:46:50;98524.91;;;24.72;72.49
35226;BME280;21813;49.686;21.766;2023-09-18T11:00:05;98499.38;;;25.09;72.75
35226;BME280;21813;49.686;21.766;2023-09-18T11:06:21;98505.84;;;25.26;69.94
35226;BME280;21813;49.686;21.766;2023-09-18T11:09:49;98504.44;;;25.17;69.47
35226;BME280;21813;49.686;21.766;2023-09-18T11:12:56;98507.13;;;25.17;72.11
35226;BME280;21813;49.686;21.766;2023-09-18T11:18:50;98496.63;;;25.22;73.15
35226;BME280;21813;49.686;21.766;2023-09-18T11:21:18;98501.13;;;25.28;72.71
35226;BME280;21813;49.686;21.766;2023-09-18T11:23:45;98498.84;;;25.32;71.78
35226;BME280;21813;49.686;21.766;2023-09-18T11:26:11;98498.88;;;25.25;70.29
35226;BME280;21813;49.686;21.766;2023-09-18T11:28:39;98495.81;;;25.22;70.71
35226;BME280;21813;49.686;21.766;2023-09-18T11:31:07;98491.09;;;25.24;71.46
35226;BME280;21813;49.686;21.766;2023-09-18T11:33:41;98493.13;;;25.28;69.83
35226;BME280;21813;49.686;21.766;2023-09-18T11:36:28;98498.41;;;25.35;68.84
35226;BME280;21813;49.686;21.766;2023-09-18T11:38:58;98491.03;;;25.37;68.30
35226;BME280;21813;49.686;21.766;2023-09-18T11:41:28;98493.06;;;25.35;71.78
35226;BME280;21813;49.686;21.766;2023-09-18T11:46:49;98479.56;;;25.30;69.41
35226;BME280;21813;49.686;21.766;2023-09-18T11:49:23;98470.34;;;25.26;69.69
35226;BME280;21813;49.686;21.766;2023-09-18T11:51:52;98476.28;;;25.28;69.50
35226;BME280;21813;49.686;21.766;2023-09-18T11:54:19;98474.66;;;25.27;68.17
35226;BME280;21813;49.686;21.766;2023-09-18T11:56:45;98467.47;;;25.27;68.58
35226;BME280;21813;49.686;21.766;2023-09-18T11:59:12;98470.53;;;25.31;68.69
35226;BME280;21813;49.686;21.766;2023-09-18T12:01:38;98462.91;;;25.34;67.75
35226;BME280;21813;49.686;21.766;2023-09-18T12:04:16;98456.78;;;25.34;68.68
35226;BME280;21813;49.686;21.766;2023-09-18T12:06:52;98451.44;;;25.34;70.38
35226;BME280;21813;49.686;21.766;2023-09-18T12:09:22;98458.38;;;25.35;72.36
35226;BME280;21813;49.686;21.766;2023-09-18T12:11:47;98456.97;;;25.32;69.55
35226;BME280;21813;49.686;21.766;2023-09-18T12:14:20;98447.78;;;25.22;69.42
35226;BME280;21813;49.686;21.766;2023-09-18T12:17:17;98468.94;;;25.17;71.25
35226;BME280;21813;49.686;21.766;2023-09-18T12:19:54;98460.19;;;25.10;70.23
35226;BME280;21813;49.686;21.766;2023-09-18T12:22:26;98453.63;;;25.05;72.65
35226;BME280;21813;49.686;21.766;2023-09-18T12:27:38;98449.13;;;24.99;69.08
35226;BME280;21813;49.686;21.766;2023-09-18T12:30:18;98443.03;;;24.92;70.02
35226;BME280;21813;49.686;21.766;2023-09-18T12:33:03;98440.75;;;24.89;72.42
35226;BME280;21813;49.686;21.766;2023-09-18T12:35:48;98443.63;;;24.88;71.31
35226;BME280;21813;49.686;21.766;2023-09-18T12:38:16;98440.19;;;24.87;71.70
35226;BME280;21813;49.686;21.766;2023-09-18T12:40:50;98433.59;;;24.90;72.10
35226;BME280;21813;49.686;21.766;2023-09-18T12:43:37;98429.06;;;24.90;69.98
35226;BME280;21813;49.686;21.766;2023-09-18T12:55:46;98428.72;;;24.67;71.75
35226;BME280;21813;49.686;21.766;2023-09-18T13:01:29;98416.66;;;24.64;72.10
35226;BME280;21813;49.686;21.766;2023-09-18T13:12:41;98407.03;;;24.63;71.21
35226;BME280;21813;49.686;21.766;2023-09-18T13:15:38;98401.09;;;24.55;71.29
35226;BME280;21813;49.686;21.766;2023-09-18T13:18:10;98407.84;;;24.51;72.26
35226;BME280;21813;49.686;21.766;2023-09-18T13:20:58;98400.28;;;24.48;72.50
35226;BME280;21813;49.686;21.766;2023-09-18T13:23:44;98397.03;;;24.46;71.77
35226;BME280;21813;49.686;21.766;2023-09-18T13:26:31;98393.31;;;24.47;72.42
35226;BME280;21813;49.686;21.766;2023-09-18T13:29:27;98384.50;;;24.46;71.99
35226;BME280;21813;49.686;21.766;2023-09-18T13:32:13;98393.31;;;24.47;74.90
35226;BME280;21813;49.686;21.766;2023-09-18T13:34:47;98389.63;;;24.48;74.15
35226;BME280;21813;49.686;21.766;2023-09-18T13:37:16;98390.47;;;24.48;73.00
35226;BME280;21813;49.686;21.766;2023-09-18T13:40:44;98375.72;;;24.46;73.56
35226;BME280;21813;49.686;21.766;2023-09-18T13:43:51;98375.50;;;24.47;74.16
35226;BME280;21813;49.686;21.766;2023-09-18T13:46:21;98377.75;;;24.44;74.34
35226;BME280;21813;49.686;21.766;2023-09-18T13:51:51;98379.41;;;24.38;75.19
35226;BME280;21813;49.686;21.766;2023-09-18T13:56:52;98378.41;;;24.33;75.84
35226;BME280;21813;49.686;21.766;2023-09-18T14:02:42;98371.88;;;24.29;76.69
35226;BME280;21813;49.686;21.766;2023-09-18T14:14:40;98338.50;;;24.13;76.19
35226;BME280;21813;49.686;21.766;2023-09-18T14:17:36;98329.06;;;24.10;75.92
35226;BME280;21813;49.686;21.766;2023-09-18T14:22:52;98327.84;;;24.06;78.69
35226;BME280;21813;49.686;21.766;2023-09-18T14:25:32;98329.91;;;24.04;78.47
35226;BME280;21813;49.686;21.766;2023-09-18T14:28:03;98319.66;;;24.01;79.00
35226;BME280;21813;49.686;21.766;2023-09-18T14:30:39;98319.47;;;23.96;79.22
35226;BME280;21813;49.686;21.766;2023-09-18T14:33:06;98308.22;;;23.94;79.53
35226;BME280;21813;49.686;21.766;2023-09-18T14:35:33;98302.69;;;23.96;79.49
35226;BME280;21813;49.686;21.766;2023-09-18T14:37:59;98314.38;;;23.95;79.27
35226;BME280;21813;49.686;21.766;2023-09-18T14:40:28;98299.63;;;23.92;78.99
35226;BME280;21813;49.686;21.766;2023-09-18T14:43:08;98299.22;;;23.89;79.22
35226;BME280;21813;49.686;21.766;2023-09-18T14:45:40;98300.44;;;23.86;78.62
35226;BME280;21813;49.686;21.766;2023-09-18T14:48:07;98302.13;;;23.81;78.68
35226;BME280;21813;49.686;21.766;2023-09-18T14:50:35;98295.97;;;23.73;78.55
35226;BME280;21813;49.686;21.766;2023-09-18T14:53:02;98309.91;;;23.69;79.26
35226;BME280;21813;49.686;21.766;2023-09-18T14:56:10;98306.03;;;23.65;79.06
35226;BME280;21813;49.686;21.766;2023-09-18T15:04:01;98303.38;;;23.52;79.73
35226;BME280;21813;49.686;21.766;2023-09-18T15:06:51;98293.56;;;23.46;80.02
35226;BME280;21813;49.686;21.766;2023-09-18T15:09:25;98290.66;;;23.41;80.02
35226;BME280;21813;49.686;21.766;2023-09-18T15:11:51;98293.94;;;23.36;80.95
35226;BME280;21813;49.686;21.766;2023-09-18T15:14:18;98276.75;;;23.32;80.75
35226;BME280;21813;49.686;21.766;2023-09-18T15:16:46;98282.69;;;23.27;80.96
35226;BME280;21813;49.686;21.766;2023-09-18T15:19:15;98284.75;;;23.25;81.89
35226;BME280;21813;49.686;21.766;2023-09-18T15:21:41;98276.78;;;23.25;82.14
35226;BME280;21813;49.686;21.766;2023-09-18T15:24:09;98285.97;;;23.23;82.57
35226;BME280;21813;49.686;21.766;2023-09-18T15:26:34;98286.97;;;23.22;81.91
35226;BME280;21813;49.686;21.766;2023-09-18T15:29:01;98286.78;;;23.23;81.18
35226;BME280;21813;49.686;21.766;2023-09-18T15:31:28;98283.31;;;23.23;82.21
35226;BME280;21813;49.686;21.766;2023-09-18T15:33:55;98284.13;;;23.23;82.10
35226;BME280;21813;49.686;21.766;2023-09-18T15:36:31;98279.81;;;23.22;81.86
35226;BME280;21813;49.686;21.766;2023-09-18T15:38:58;98275.53;;;23.21;82.25
35226;BME280;21813;49.686;21.766;2023-09-18T15:41:25;98282.91;;;23.19;82.06
35226;BME280;21813;49.686;21.766;2023-09-18T15:44:03;98282.50;;;23.16;82.65
35226;BME280;21813;49.686;21.766;2023-09-18T15:46:34;98272.69;;;23.10;82.35
35226;BME280;21813;49.686;21.766;2023-09-18T15:49:04;98280.25;;;23.06;83.46
35226;BME280;21813;49.686;21.766;2023-09-18T15:51:29;98273.91;;;23.01;83.40
35226;BME280;21813;49.686;21.766;2023-09-18T15:53:56;98276.16;;;22.97;84.01
35226;BME280;21813;49.686;21.766;2023-09-18T15:56:22;98278.38;;;22.94;83.33
35226;BME280;21813;49.686;21.766;2023-09-18T15:59:09;98277.38;;;22.88;83.75
35226;BME280;21813;49.686;21.766;2023-09-18T16:01:35;98270.84;;;22.84;84.15
35226;BME280;21813;49.686;21.766;2023-09-18T16:04:06;98277.53;;;22.80;84.05
35226;BME280;21813;49.686;21.766;2023-09-18T16:09:38;98265.28;;;22.72;84.39
35226;BME280;21813;49.686;21.766;2023-09-18T16:12:06;98266.50;;;22.70;84.72
35226;BME280;21813;49.686;21.766;2023-09-18T16:14:33;98264.22;;;22.67;85.01
35226;BME280;21813;49.686;21.766;2023-09-18T16:16:59;98262.38;;;22.61;85.54
35226;BME280;21813;49.686;21.766;2023-09-18T16:19:33;98259.88;;;22.53;86.07
35226;BME280;21813;49.686;21.766;2023-09-18T16:22:01;98261.72;;;22.45;86.71
35226;BME280;21813;49.686;21.766;2023-09-18T16:24:27;98248.22;;;22.40;87.29
35226;BME280;21813;49.686;21.766;2023-09-18T16:26:56;98251.66;;;22.34;87.85
35226;BME280;21813;49.686;21.766;2023-09-18T16:29:25;98257.78;;;22.28;87.68
35226;BME280;21813;49.686;21.766;2023-09-18T16:31:53;98250.44;;;22.24;87.79
35226;BME280;21813;49.686;21.766;2023-09-18T16:34:36;98253.69;;;22.19;87.56
35226;BME280;21813;49.686;21.766;2023-09-18T16:37:32;98246.50;;;22.13;88.45
35226;BME280;21813;49.686;21.766;2023-09-18T16:43:18;98239.09;;;22.02;88.95
35226;BME280;21813;49.686;21.766;2023-09-18T16:45:48;98244.16;;;21.97;89.37
35226;BME280;21813;49.686;21.766;2023-09-18T16:48:13;98239.63;;;21.91;89.88
35226;BME280;21813;49.686;21.766;2023-09-18T16:50:57;98236.13;;;21.84;90.09
35226;BME280;21813;49.686;21.766;2023-09-18T16:53:24;98244.50;;;21.81;90.42
35226;BME280;21813;49.686;21.766;2023-09-18T16:55:52;98243.63;;;21.74;90.80
35226;BME280;21813;49.686;21.766;2023-09-18T16:58:17;98233.19;;;21.66;91.20
35226;BME280;21813;49.686;21.766;2023-09-18T17:00:43;98224.97;;;21.60;91.33
35226;BME280;21813;49.686;21.766;2023-09-18T17:03:09;98226.56;;;21.55;91.88
35226;BME280;21813;49.686;21.766;2023-09-18T17:05:35;98230.03;;;21.49;92.17
35226;BME280;21813;49.686;21.766;2023-09-18T17:08:01;98228.97;;;21.43;92.45
35226;BME280;21813;49.686;21.766;2023-09-18T17:10:28;98228.72;;;21.38;92.90
35226;BME280;21813;49.686;21.766;2023-09-18T17:12:53;98219.72;;;21.33;93.58
35226;BME280;21813;49.686;21.766;2023-09-18T17:15:20;98221.69;;;21.24;94.25
35226;BME280;21813;49.686;21.766;2023-09-18T17:17:46;98220.44;;;21.20;94.70
35226;BME280;21813;49.686;21.766;2023-09-18T17:20:13;98210.59;;;21.14;95.17
35226;BME280;21813;49.686;21.766;2023-09-18T17:22:38;98223.41;;;21.10;95.64
35226;BME280;21813;49.686;21.766;2023-09-18T17:25:05;98225.63;;;21.07;95.89
35226;BME280;21813;49.686;21.766;2023-09-18T17:27:31;98217.81;;;20.99;96.27
35226;BME280;21813;49.686;21.766;2023-09-18T17:29:59;98216.53;;;20.95;96.81
35226;BME280;21813;49.686;21.766;2023-09-18T17:32:25;98205.91;;;20.88;97.15
35226;BME280;21813;49.686;21.766;2023-09-18T17:37:26;98213.19;;;20.80;98.04
35226;BME280;21813;49.686;21.766;2023-09-18T17:39:52;98204.97;;;20.75;98.36
35226;BME280;21813;49.686;21.766;2023-09-18T17:42:18;98206.38;;;20.70;99.04
35226;BME280;21813;49.686;21.766;2023-09-18T17:44:55;98209.38;;;20.67;99.53
35226;BME280;21813;49.686;21.766;2023-09-18T17:47:27;98209.94;;;20.63;99.78
35226;BME280;21813;49.686;21.766;2023-09-18T17:49:54;98202.41;;;20.60;100.00
35226;BME280;21813;49.686;21.766;2023-09-18T17:52:28;98195.84;;;20.56;100.00
35226;BME280;21813;49.686;21.766;2023-09-18T17:54:55;98202.31;;;20.53;100.00
35226;BME280;21813;49.686;21.766;2023-09-18T18:00:36;98194.34;;;20.47;100.00
35226;BME280;21813;49.686;21.766;2023-09-18T18:03:04;98201.03;;;20.43;100.00
35226;BME280;21813;49.686;21.766;2023-09-18T18:05:48;98200.59;;;20.39;100.00
35226;BME280;21813;49.686;21.766;2023-09-18T18:08:14;98199.28;;;20.35;100.00
35226;BME280;21813;49.686;21.766;2023-09-18T18:10:42;98197.22;;;20.31;100.00
35226;BME280;21813;49.686;21.766;2023-09-18T18:13:12;98203.88;;;20.26;100.00
35226;BME280;21813;49.686;21.766;2023-09-18T18:15:39;98197.47;;;20.21;100.00
35226;BME280;21813;49.686;21.766;2023-09-18T18:18:05;98197.03;;;20.17;100.00
35226;BME280;21813;49.686;21.766;2023-09-18T18:20:36;98203.97;;;20.18;100.00
35226;BME280;21813;49.686;21.766;2023-09-18T18:23:12;98194.59;;;20.16;100.00
35226;BME280;21813;49.686;21.766;2023-09-18T18:25:38;98203.53;;;20.15;100.00
35226;BME280;21813;49.686;21.766;2023-09-18T18:28:05;98198.59;;;20.12;100.00
35226;BME280;21813;49.686;21.766;2023-09-18T18:30:33;98207.56;;;20.11;100.00
35226;BME280;21813;49.686;21.766;2023-09-18T18:33:01;98204.28;;;20.09;100.00
35226;BME280;21813;49.686;21.766;2023-09-18T18:35:30;98212.22;;;20.09;100.00
35226;BME280;21813;49.686;21.766;2023-09-18T18:37:56;98212.41;;;20.07;100.00
35226;BME280;21813;49.686;21.766;2023-09-18T18:40:23;98205.66;;;20.05;100.00
35226;BME280;21813;49.686;21.766;2023-09-18T18:42:49;98203.41;;;20.02;100.00
35226;BME280;21813;49.686;21.766;2023-09-18T18:45:18;98200.66;;;19.95;100.00
35226;BME280;21813;49.686;21.766;2023-09-18T18:47:44;98199.56;;;19.90;100.00
35226;BME280;21813;49.686;21.766;2023-09-18T18:50:13;98191.59;;;19.83;100.00
35226;BME280;21813;49.686;21.766;2023-09-18T18:52:39;98195.78;;;19.77;100.00
35226;BME280;21813;49.686;21.766;2023-09-18T18:55:10;98187.75;;;19.71;100.00
35226;BME280;21813;49.686;21.766;2023-09-18T18:57:41;98183.56;;;19.62;100.00
35226;BME280;21813;49.686;21.766;2023-09-18T19:00:08;98188.78;;;19.55;100.00
35226;BME280;21813;49.686;21.766;2023-09-18T19:02:37;98185.22;;;19.48;100.00
35226;BME280;21813;49.686;21.766;2023-09-18T19:05:27;98185.59;;;19.45;100.00
35226;BME280;21813;49.686;21.766;2023-09-18T19:11:43;98184.63;;;19.38;100.00
35226;BME280;21813;49.686;21.766;2023-09-18T19:14:24;98176.09;;;19.36;100.00
35226;BME280;21813;49.686;21.766;2023-09-18T19:17:12;98171.16;;;19.33;100.00
35226;BME280;21813;49.686;21.766;2023-09-18T19:19:45;98166.22;;;19.30;100.00
35226;BME280;21813;49.686;21.766;2023-09-18T19:22:11;98168.59;;;19.25;100.00
35226;BME280;21813;49.686;21.766;2023-09-18T19:24:37;98167.50;;;19.19;100.00
35226;BME280;21813;49.686;21.766;2023-09-18T19:27:03;98163.13;;;19.12;100.00
35226;BME280;21813;49.686;21.766;2023-09-18T19:29:30;98162.22;;;19.05;100.00
35226;BME280;21813;49.686;21.766;2023-09-18T19:31:57;98156.84;;;18.98;100.00
35226;BME280;21813;49.686;21.766;2023-09-18T19:34:25;98156.38;;;18.94;100.00
35226;BME280;21813;49.686;21.766;2023-09-18T19:36:50;98150.81;;;18.89;100.00
35226;BME280;21813;49.686;21.766;2023-09-18T19:39:19;98143.59;;;18.83;100.00
35226;BME280;21813;49.686;21.766;2023-09-18T19:41:45;98145.97;;;18.78;100.00
35226;BME280;21813;49.686;21.766;2023-09-18T19:44:11;98148.31;;;18.73;100.00
35226;BME280;21813;49.686;21.766;2023-09-18T19:46:37;98143.56;;;18.69;100.00
35226;BME280;21813;49.686;21.766;2023-09-18T19:49:05;98143.13;;;18.65;100.00
35226;BME280;21813;49.686;21.766;2023-09-18T19:51:33;98144.47;;;18.61;100.00
35226;BME280;21813;49.686;21.766;2023-09-18T19:53:59;98146.47;;;18.59;100.00
35226;BME280;21813;49.686;21.766;2023-09-18T19:56:25;98142.75;;;18.53;100.00